createdAt,value
2022-12-08T00:01:22.864Z,98467.00
2022-12-08T00:03:49.781Z,98472.40
2022-12-08T00:07:01.805Z,98471.20
2022-12-08T00:09:39.303Z,98469.00
2022-12-08T00:12:14.681Z,98483.80
2022-12-08T00:14:44.067Z,98479.20
2022-12-08T00:17:12.857Z,98482.00
2022-12-08T00:19:39.721Z,98485.20
2022-12-08T00:22:07.438Z,98489.60
2022-12-08T00:24:38.770Z,98483.80
2022-12-08T00:27:06.689Z,98489.80
2022-12-08T00:29:34.270Z,98491.20
2022-12-08T00:32:00.663Z,98497.40
2022-12-08T00:34:28.239Z,98498.00
2022-12-08T00:36:54.580Z,98496.60
2022-12-08T00:39:20.884Z,98506.20
2022-12-08T00:42:06.372Z,98506.20
2022-12-08T00:44:32.894Z,98501.40
2022-12-08T00:46:59.398Z,98507.00
2022-12-08T00:49:25.759Z,98510.20
2022-12-08T00:51:52.157Z,98512.40
2022-12-08T00:54:18.932Z,98517.40
2022-12-08T00:56:45.896Z,98521.60
2022-12-08T00:59:12.396Z,98527.00
2022-12-08T01:01:39.959Z,98530.40
2022-12-08T01:04:09.352Z,98528.20
2022-12-08T01:06:37.866Z,98530.40
2022-12-08T01:09:06.001Z,98530.80
2022-12-08T01:11:32.550Z,98540.00
2022-12-08T01:13:58.918Z,98536.60
2022-12-08T01:16:28.524Z,98543.80
2022-12-08T01:18:55.433Z,98538.40
2022-12-08T01:21:21.934Z,98544.80
2022-12-08T01:23:48.426Z,98546.20
2022-12-08T01:26:16.343Z,98543.60
2022-12-08T01:28:44.722Z,98541.20
2022-12-08T01:31:17.528Z,98539.60
2022-12-08T01:33:44.020Z,98537.80
2022-12-08T01:36:28.505Z,98548.00
2022-12-08T01:38:58.363Z,98548.20
2022-12-08T01:41:30.066Z,98551.20
2022-12-08T01:44:01.454Z,98556.60
2022-12-08T01:46:32.601Z,98553.80
2022-12-08T01:49:11.812Z,98552.60
2022-12-08T01:51:48.237Z,98552.20
2022-12-08T01:54:14.649Z,98555.60
2022-12-08T01:56:45.862Z,98555.20
2022-12-08T01:59:12.234Z,98554.80
2022-12-08T02:01:39.601Z,98556.00
2022-12-08T02:04:06.223Z,98552.60
2022-12-08T02:06:36.051Z,98560.60
2022-12-08T02:09:02.808Z,98552.80
2022-12-08T02:11:30.258Z,98553.20
2022-12-08T02:13:57.110Z,98552.80
2022-12-08T02:17:21.139Z,98556.40
2022-12-08T02:20:26.399Z,98551.40
2022-12-08T02:23:21.315Z,98549.20
2022-12-08T02:25:56.949Z,98549.40
2022-12-08T02:28:53.636Z,98544.20
2022-12-08T02:31:54.902Z,98550.00
2022-12-08T02:35:04.764Z,98555.00
2022-12-08T02:37:55.861Z,98550.20
2022-12-08T02:40:37.068Z,98557.00
2022-12-08T02:43:08.924Z,98553.20
2022-12-08T02:45:48.509Z,98558.40
2022-12-08T02:48:15.049Z,98553.80
2022-12-08T02:50:41.791Z,98551.20
2022-12-08T02:56:05.437Z,98546.80
2022-12-08T02:58:45.552Z,98548.20
2022-12-08T03:01:46.310Z,98552.80
2022-12-08T03:04:39.484Z,98544.20
2022-12-08T03:07:21.558Z,98554.40
2022-12-08T03:09:56.113Z,98550.80
2022-12-08T03:12:49.632Z,98552.60
2022-12-08T03:15:19.163Z,98559.00
2022-12-08T03:17:49.869Z,98552.60
2022-12-08T03:20:20.916Z,98545.80
2022-12-08T03:22:47.746Z,98554.00
2022-12-08T03:25:14.563Z,98551.80
2022-12-08T03:27:40.919Z,98551.60
2022-12-08T03:30:08.897Z,98551.20
2022-12-08T03:32:47.132Z,98556.80
2022-12-08T03:35:19.821Z,98559.20
2022-12-08T03:37:46.525Z,98558.40
2022-12-08T03:40:18.342Z,98564.00
2022-12-08T03:42:45.360Z,98566.20
2022-12-08T03:45:11.829Z,98561.60
2022-12-08T03:47:38.347Z,98559.40
2022-12-08T03:50:07.007Z,98562.00
2022-12-08T03:52:33.675Z,98558.40
2022-12-08T03:55:00.002Z,98563.60
2022-12-08T03:57:26.324Z,98561.20
2022-12-08T03:59:52.697Z,98568.80
2022-12-08T04:02:19.658Z,98570.80
2022-12-08T04:04:46.096Z,98567.60
2022-12-08T04:07:12.442Z,98566.80
2022-12-08T04:09:40.898Z,98572.60
2022-12-08T04:12:08.589Z,98562.80
2022-12-08T04:14:35.078Z,98554.40
2022-12-08T04:17:01.543Z,98560.80
2022-12-08T04:19:28.210Z,98555.20
2022-12-08T04:21:54.725Z,98557.20
2022-12-08T04:24:21.148Z,98561.20
2022-12-08T04:26:49.171Z,98563.40
2022-12-08T04:29:15.848Z,98567.60
2022-12-08T04:31:42.407Z,98564.60
2022-12-08T04:34:09.599Z,98567.20
2022-12-08T04:36:36.079Z,98560.00
2022-12-08T04:39:02.979Z,98561.80
2022-12-08T04:41:29.599Z,98562.00
2022-12-08T04:43:55.983Z,98561.80
2022-12-08T04:46:22.354Z,98560.80
2022-12-08T04:48:48.819Z,98554.00
2022-12-08T04:51:19.240Z,98553.40
2022-12-08T04:53:46.931Z,98545.60
2022-12-08T04:56:18.097Z,98546.60
2022-12-08T04:58:44.803Z,98547.60
2022-12-08T05:01:12.123Z,98545.40
2022-12-08T05:03:38.614Z,98552.20
2022-12-08T05:06:05.409Z,98558.80
2022-12-08T05:08:31.826Z,98554.80
2022-12-08T05:11:06.059Z,98552.20
2022-12-08T05:13:32.575Z,98544.80
2022-12-08T05:16:11.149Z,98551.80
2022-12-08T05:18:38.575Z,98546.80
2022-12-08T05:21:05.666Z,98551.00
2022-12-08T05:23:32.119Z,98546.80
2022-12-08T05:25:59.265Z,98559.40
2022-12-08T05:28:41.240Z,98554.60
2022-12-08T05:31:09.662Z,98554.80
2022-12-08T05:33:36.067Z,98562.60
2022-12-08T05:36:02.860Z,98558.40
2022-12-08T05:38:30.460Z,98552.40
2022-12-08T05:40:56.823Z,98552.20
2022-12-08T05:43:23.557Z,98556.60
2022-12-08T05:45:51.242Z,98570.20
2022-12-08T05:48:17.840Z,98574.00
2022-12-08T05:50:47.823Z,98567.80
2022-12-08T05:53:16.016Z,98569.00
2022-12-08T05:55:42.730Z,98573.20
2022-12-08T05:58:15.191Z,98571.20
2022-12-08T06:00:41.921Z,98573.20
2022-12-08T06:03:13.170Z,98569.60
2022-12-08T06:05:40.919Z,98575.80
2022-12-08T06:08:07.941Z,98582.20
2022-12-08T06:10:34.488Z,98584.80
2022-12-08T06:13:00.804Z,98588.00
2022-12-08T06:15:27.282Z,98584.00
2022-12-08T06:17:53.651Z,98587.00
2022-12-08T06:20:20.053Z,98589.40
2022-12-08T06:22:46.533Z,98590.80
2022-12-08T06:25:12.861Z,98586.00
2022-12-08T06:27:39.371Z,98588.40
2022-12-08T06:30:07.045Z,98584.20
2022-12-08T06:32:33.657Z,98584.80
2022-12-08T06:35:00.241Z,98582.20
2022-12-08T06:37:26.607Z,98592.60
2022-12-08T06:39:53.610Z,98590.80
2022-12-08T06:42:38.902Z,98595.00
2022-12-08T06:45:06.288Z,98596.20
2022-12-08T06:47:32.795Z,98604.60
2022-12-08T06:49:59.252Z,98603.20
2022-12-08T06:52:25.607Z,98598.40
2022-12-08T06:55:02.026Z,98612.60
2022-12-08T06:57:28.422Z,98614.80
2022-12-08T06:59:54.845Z,98618.60
2022-12-08T07:02:21.281Z,98618.20
2022-12-08T07:04:47.821Z,98618.40
2022-12-08T07:07:14.171Z,98616.60
2022-12-08T07:09:42.646Z,98617.40
2022-12-08T07:12:09.150Z,98618.40
2022-12-08T07:14:35.493Z,98618.00
2022-12-08T07:17:02.018Z,98620.00
2022-12-08T07:19:28.481Z,98623.00
2022-12-08T07:21:54.797Z,98618.40
2022-12-08T07:24:21.305Z,98617.80
2022-12-08T07:26:47.713Z,98618.20
2022-12-08T07:29:14.727Z,98610.00
2022-12-08T07:31:41.215Z,98606.20
2022-12-08T07:34:07.579Z,98618.00
2022-12-08T07:36:33.972Z,98616.60
2022-12-08T07:39:00.358Z,98612.00
2022-12-08T07:41:27.532Z,98617.20
2022-12-08T07:43:55.450Z,98623.60
2022-12-08T07:46:24.250Z,98619.80
2022-12-08T07:48:52.541Z,98617.20
2022-12-08T07:51:20.264Z,98619.80
2022-12-08T07:53:53.425Z,98617.60
2022-12-08T07:56:20.866Z,98614.80
2022-12-08T07:58:47.257Z,98617.20
2022-12-08T08:01:26.149Z,98622.60
2022-12-08T08:03:54.621Z,98623.00
2022-12-08T08:06:21.317Z,98616.00
2022-12-08T08:08:47.741Z,98612.20
2022-12-08T08:11:20.876Z,98609.00
2022-12-08T08:13:49.862Z,98610.00
2022-12-08T08:16:16.470Z,98610.00
2022-12-08T08:18:43.013Z,98612.00
2022-12-08T08:21:43.089Z,98612.00
2022-12-08T08:23:55.939Z,98613.20
2022-12-08T08:26:22.368Z,98621.20
2022-12-08T08:28:49.533Z,98615.20
2022-12-08T08:31:15.983Z,98611.20
2022-12-08T08:33:42.365Z,98612.00
2022-12-08T08:36:09.350Z,98609.40
2022-12-08T08:38:39.435Z,98616.60
2022-12-08T08:41:09.972Z,98615.40
2022-12-08T08:43:38.644Z,98618.00
2022-12-08T08:46:05.607Z,98615.00
2022-12-08T08:48:32.143Z,98623.60
2022-12-08T08:50:58.839Z,98622.40
2022-12-08T08:53:25.300Z,98625.60
2022-12-08T08:55:51.794Z,98621.20
2022-12-08T08:58:18.285Z,98624.20
2022-12-08T09:00:44.714Z,98612.20
2022-12-08T09:03:11.002Z,98605.00
2022-12-08T09:05:39.911Z,98603.40
2022-12-08T09:08:07.269Z,98601.80
2022-12-08T09:10:33.638Z,98601.00
2022-12-08T09:13:00.050Z,98601.20
2022-12-08T09:15:26.475Z,98600.60
2022-12-08T09:17:52.919Z,98604.20
2022-12-08T09:20:19.369Z,98601.20
2022-12-08T09:22:45.799Z,98601.80
2022-12-08T09:25:12.786Z,98599.20
2022-12-08T09:27:39.095Z,98594.00
2022-12-08T09:30:07.128Z,98590.20
2022-12-08T09:32:33.853Z,98582.40
2022-12-08T09:35:00.934Z,98576.40
2022-12-08T09:37:27.441Z,98574.80
2022-12-08T09:39:53.924Z,98572.80
2022-12-08T09:42:34.869Z,98575.60
2022-12-08T09:45:10.525Z,98571.00
2022-12-08T09:47:47.310Z,98568.40
2022-12-08T09:50:33.339Z,98568.80
2022-12-08T09:53:09.192Z,98564.00
2022-12-08T09:55:43.047Z,98561.20
2022-12-08T09:58:45.123Z,98569.40
2022-12-08T10:01:11.617Z,98571.60
2022-12-08T10:03:38.124Z,98572.60
2022-12-08T10:06:32.337Z,98569.20
2022-12-08T10:09:24.674Z,98566.20
2022-12-08T10:12:58.929Z,98556.80
2022-12-08T10:15:53.100Z,98563.80
2022-12-08T10:18:27.104Z,98552.40
2022-12-08T10:20:53.735Z,98553.00
2022-12-08T10:23:35.807Z,98547.80
2022-12-08T10:26:04.660Z,98545.20
2022-12-08T10:28:31.351Z,98548.40
2022-12-08T10:30:57.795Z,98544.60
2022-12-08T10:33:24.364Z,98545.60
2022-12-08T10:35:57.711Z,98536.00
2022-12-08T10:38:33.874Z,98546.60
2022-12-08T10:41:08.498Z,98535.40
2022-12-08T10:43:49.241Z,98536.60
2022-12-08T10:46:21.995Z,98536.40
2022-12-08T10:49:16.480Z,98536.00
2022-12-08T10:51:43.244Z,98529.20
2022-12-08T10:54:33.968Z,98521.60
2022-12-08T10:57:00.418Z,98526.00
2022-12-08T10:59:26.996Z,98516.40
2022-12-08T11:01:55.253Z,98514.20
2022-12-08T11:04:33.957Z,98513.00
2022-12-08T11:07:00.311Z,98512.20
2022-12-08T11:09:48.062Z,98509.80
2022-12-08T11:12:15.990Z,98510.60
2022-12-08T11:14:42.358Z,98507.60
2022-12-08T11:17:12.780Z,98505.20
2022-12-08T11:20:01.049Z,98501.80
2022-12-08T11:22:34.781Z,98493.40
2022-12-08T11:25:07.688Z,98502.00
2022-12-08T11:27:38.603Z,98504.20
2022-12-08T11:30:21.654Z,98497.80
2022-12-08T11:33:20.547Z,98501.00
2022-12-08T11:35:51.343Z,98502.80
2022-12-08T11:38:23.259Z,98499.60
2022-12-08T11:41:15.577Z,98501.20
2022-12-08T11:44:33.200Z,98498.60
2022-12-08T11:47:06.082Z,98495.40
2022-12-08T11:49:37.665Z,98490.60
2022-12-08T11:52:28.860Z,98490.60
2022-12-08T11:55:02.804Z,98491.20
2022-12-08T11:57:29.379Z,98490.60
2022-12-08T11:59:57.203Z,98485.00
2022-12-08T12:02:29.282Z,98481.60
2022-12-08T12:05:10.243Z,98486.60
2022-12-08T12:07:52.184Z,98487.40
2022-12-08T12:10:52.281Z,98484.20
2022-12-08T12:14:05.041Z,98484.00
2022-12-08T12:17:03.351Z,98489.40
2022-12-08T12:19:33.806Z,98480.60
2022-12-08T12:22:15.018Z,98479.40
2022-12-08T12:24:43.877Z,98482.00
2022-12-08T12:27:13.090Z,98472.20
2022-12-08T12:29:48.722Z,98473.60
2022-12-08T12:32:17.219Z,98479.40
2022-12-08T12:34:58.378Z,98479.60
2022-12-08T12:37:37.012Z,98476.80
2022-12-08T12:40:15.672Z,98475.20
2022-12-08T12:42:44.331Z,98475.60
2022-12-08T12:45:21.765Z,98472.60
2022-12-08T12:47:55.600Z,98470.20
2022-12-08T12:50:38.322Z,98466.20
2022-12-08T12:53:26.219Z,98461.00
2022-12-08T12:56:03.257Z,98460.00
2022-12-08T12:58:29.626Z,98456.00
2022-12-08T13:01:14.676Z,98456.40
2022-12-08T13:03:46.710Z,98449.40
2022-12-08T13:06:14.806Z,98447.40
2022-12-08T13:08:52.834Z,98444.00
2022-12-08T13:11:19.225Z,98449.60
2022-12-08T13:14:02.965Z,98445.80
2022-12-08T13:16:37.621Z,98443.00
2022-12-08T13:19:05.379Z,98443.00
2022-12-08T13:21:38.279Z,98443.20
2022-12-08T13:24:16.666Z,98443.00
2022-12-08T13:26:44.289Z,98437.40
2022-12-08T13:29:22.562Z,98445.80
2022-12-08T13:31:51.648Z,98444.20
2022-12-08T13:34:52.643Z,98446.00
2022-12-08T13:37:29.232Z,98443.40
2022-12-08T13:39:59.881Z,98442.80
2022-12-08T13:42:26.295Z,98443.40
2022-12-08T13:45:27.870Z,98440.00
2022-12-08T13:48:35.163Z,98438.00
2022-12-08T13:57:25.795Z,98439.40
2022-12-08T13:59:52.535Z,98445.40
2022-12-08T14:02:29.538Z,98449.80
2022-12-08T14:07:42.462Z,98450.60
2022-12-08T14:10:15.394Z,98441.80
2022-12-08T14:12:44.581Z,98449.40
2022-12-08T14:15:12.430Z,98442.60
2022-12-08T14:17:38.922Z,98444.80
2022-12-08T14:20:27.446Z,98455.00
2022-12-08T14:22:54.079Z,98444.80
2022-12-08T14:25:21.221Z,98444.60
2022-12-08T14:27:48.047Z,98447.40
2022-12-08T14:30:44.188Z,98443.20
2022-12-08T14:33:13.845Z,98449.40
2022-12-08T14:35:40.227Z,98447.80
2022-12-08T14:38:14.009Z,98445.60
2022-12-08T14:40:42.563Z,98449.40
2022-12-08T14:43:08.888Z,98451.00
2022-12-08T14:45:44.077Z,98450.00
2022-12-08T14:48:43.976Z,98448.20
2022-12-08T14:51:19.798Z,98454.40
2022-12-08T14:54:07.548Z,98454.60
2022-12-08T14:56:56.258Z,98455.40
2022-12-08T14:59:36.419Z,98457.40
2022-12-08T15:02:14.777Z,98459.80
2022-12-08T15:04:46.997Z,98463.00
2022-12-08T15:07:24.507Z,98467.60
2022-12-08T15:10:21.906Z,98467.60
2022-12-08T15:13:21.482Z,98473.40
2022-12-08T15:15:50.942Z,98469.20
2022-12-08T15:18:39.774Z,98470.20
2022-12-08T15:21:08.493Z,98467.80
2022-12-08T15:23:44.376Z,98465.20
2022-12-08T15:26:22.731Z,98466.60
2022-12-08T15:28:49.441Z,98471.20
2022-12-08T15:31:17.264Z,98479.60
2022-12-08T15:33:43.793Z,98475.20
2022-12-08T15:36:10.469Z,98469.60
2022-12-08T15:38:37.078Z,98472.60
2022-12-08T15:41:04.370Z,98470.60
2022-12-08T15:43:31.370Z,98470.80
2022-12-08T15:46:00.037Z,98476.20
2022-12-08T15:48:28.702Z,98477.40
2022-12-08T15:50:55.689Z,98474.40
2022-12-08T15:53:22.573Z,98471.20
2022-12-08T15:56:18.487Z,98469.20
2022-12-08T16:01:22.590Z,98473.20
2022-12-08T16:09:35.700Z,98475.60
2022-12-08T16:12:21.305Z,98480.00
2022-12-08T16:15:47.248Z,98479.80
2022-12-08T16:17:34.562Z,98474.00
2022-12-08T16:20:02.407Z,98474.00
2022-12-08T16:25:19.785Z,98472.40
2022-12-08T16:28:12.507Z,98470.40
2022-12-08T16:30:39.432Z,98473.00
2022-12-08T16:33:05.799Z,98470.60
2022-12-08T16:35:32.403Z,98469.60
2022-12-08T16:37:58.923Z,98468.00
2022-12-08T16:40:25.382Z,98470.00
2022-12-08T16:42:51.846Z,98471.00
2022-12-08T16:45:19.291Z,98469.40
2022-12-08T16:47:58.150Z,98469.40
2022-12-08T16:50:26.169Z,98468.20
2022-12-08T16:52:58.387Z,98470.40
2022-12-08T16:55:24.902Z,98469.40
2022-12-08T16:57:51.537Z,98473.00
2022-12-08T17:00:23.382Z,98470.60
2022-12-08T17:02:50.113Z,98468.00
2022-12-08T17:05:18.652Z,98465.20
2022-12-08T17:07:46.660Z,98470.00
2022-12-08T17:10:16.393Z,98468.80
2022-12-08T17:12:43.095Z,98470.60
2022-12-08T17:15:15.533Z,98474.80
2022-12-08T17:17:41.894Z,98471.20
2022-12-08T17:20:12.828Z,98473.00
2022-12-08T17:22:39.184Z,98474.20
2022-12-08T17:25:06.814Z,98466.00
2022-12-08T17:27:33.252Z,98471.40
2022-12-08T17:29:59.743Z,98476.00
2022-12-08T17:32:27.364Z,98478.40
2022-12-08T17:34:53.847Z,98474.20
2022-12-08T17:37:20.296Z,98478.40
2022-12-08T17:39:46.791Z,98478.40
2022-12-08T17:42:13.275Z,98478.60
2022-12-08T17:44:39.826Z,98479.80
2022-12-08T17:47:06.334Z,98478.20
2022-12-08T17:49:33.376Z,98482.80
2022-12-08T17:52:04.720Z,98478.60
2022-12-08T17:54:31.209Z,98480.60
2022-12-08T17:56:58.049Z,98477.40
2022-12-08T17:59:25.823Z,98489.20
2022-12-08T18:01:53.465Z,98483.20
2022-12-08T18:04:20.104Z,98486.20
2022-12-08T18:06:46.652Z,98482.20
2022-12-08T18:09:13.793Z,98485.40
2022-12-08T18:11:40.920Z,98485.20
2022-12-08T18:14:10.180Z,98486.40
2022-12-08T18:16:42.973Z,98480.80
2022-12-08T18:19:10.275Z,98478.00
2022-12-08T18:21:36.810Z,98477.20
2022-12-08T18:24:03.886Z,98474.40
2022-12-08T18:26:30.505Z,98475.80
2022-12-08T18:28:57.465Z,98478.60
2022-12-08T18:31:24.179Z,98481.40
2022-12-08T18:33:52.789Z,98478.40
2022-12-08T18:36:22.666Z,98472.40
2022-12-08T18:38:50.127Z,98470.20
2022-12-08T18:41:19.567Z,98469.20
2022-12-08T18:43:46.125Z,98469.00
2022-12-08T18:46:14.070Z,98470.20
2022-12-08T18:48:43.492Z,98468.20
2022-12-08T18:51:16.332Z,98471.40
2022-12-08T18:53:43.352Z,98475.20
2022-12-08T18:56:30.963Z,98469.40
2022-12-08T18:59:03.711Z,98471.40
2022-12-08T19:01:35.535Z,98466.60
2022-12-08T19:04:27.862Z,98473.00
2022-12-08T19:06:52.282Z,98471.00
2022-12-08T19:09:18.990Z,98466.60
2022-12-08T19:11:45.729Z,98468.20
2022-12-08T19:14:12.147Z,98470.80
2022-12-08T19:16:38.693Z,98476.20
2022-12-08T19:19:05.336Z,98473.20
2022-12-08T19:21:33.402Z,98471.00
2022-12-08T19:23:59.945Z,98468.40
2022-12-08T19:26:27.297Z,98465.80
2022-12-08T19:28:54.389Z,98467.20
2022-12-08T19:31:20.918Z,98459.40
2022-12-08T19:33:47.480Z,98459.80
2022-12-08T19:36:17.719Z,98462.20
2022-12-08T19:39:03.017Z,98458.20
2022-12-08T19:41:48.408Z,98459.20
2022-12-08T19:44:39.470Z,98459.60
2022-12-08T19:47:05.930Z,98460.40
2022-12-08T19:49:33.618Z,98459.80
2022-12-08T19:52:00.421Z,98459.80
2022-12-08T19:54:27.089Z,98456.80
2022-12-08T19:56:53.456Z,98448.20
2022-12-08T19:59:19.948Z,98454.00
2022-12-08T20:01:47.774Z,98452.80
2022-12-08T20:04:14.930Z,98455.40
2022-12-08T20:06:42.138Z,98450.80
2022-12-08T20:09:09.836Z,98447.00
2022-12-08T20:11:37.636Z,98448.80
2022-12-08T20:14:04.247Z,98450.00
2022-12-08T20:16:32.010Z,98445.60
2022-12-08T20:18:58.998Z,98448.00
2022-12-08T20:21:25.760Z,98452.40
2022-12-08T20:23:52.305Z,98450.20
2022-12-08T20:26:21.385Z,98450.20
2022-12-08T20:28:47.994Z,98456.60
2022-12-08T20:31:24.045Z,98455.60
2022-12-08T20:33:50.648Z,98457.60
2022-12-08T20:36:19.698Z,98453.60
2022-12-08T20:38:47.538Z,98449.80
2022-12-08T20:41:17.401Z,98452.80
2022-12-08T20:43:45.212Z,98455.20
2022-12-08T20:46:13.911Z,98450.80
2022-12-08T20:48:41.512Z,98450.20
2022-12-08T20:51:13.389Z,98447.80
2022-12-08T20:53:39.956Z,98444.60
2022-12-08T20:56:06.990Z,98450.20
2022-12-08T20:58:33.647Z,98440.20
2022-12-08T21:01:00.230Z,98447.60
2022-12-08T21:03:26.903Z,98446.60
2022-12-08T21:05:53.609Z,98441.80
2022-12-08T21:08:20.361Z,98441.20
2022-12-08T21:10:56.724Z,98443.80
2022-12-08T21:13:23.876Z,98445.60
2022-12-08T21:15:50.489Z,98439.00
2022-12-08T21:18:17.297Z,98438.80
2022-12-08T21:20:44.114Z,98436.80
2022-12-08T21:23:11.133Z,98433.40
2022-12-08T21:25:42.692Z,98436.00
2022-12-08T21:28:10.258Z,98443.20
2022-12-08T21:30:39.415Z,98440.60
2022-12-08T21:33:06.219Z,98443.20
2022-12-08T21:35:32.774Z,98447.60
2022-12-08T21:38:00.905Z,98445.00
2022-12-08T21:40:27.409Z,98445.60
2022-12-08T21:42:54.112Z,98440.60
2022-12-08T21:45:20.914Z,98445.60
2022-12-08T21:47:48.205Z,98446.60
2022-12-08T21:50:15.019Z,98443.00
2022-12-08T21:52:43.353Z,98442.00
2022-12-08T21:55:11.634Z,98440.20
2022-12-08T21:57:39.232Z,98439.80
2022-12-08T22:00:07.972Z,98446.60
2022-12-08T22:02:35.087Z,98448.20
2022-12-08T22:05:01.823Z,98437.20
2022-12-08T22:07:28.323Z,98440.80
2022-12-08T22:09:54.917Z,98439.40
2022-12-08T22:12:21.597Z,98434.00
2022-12-08T22:14:50.264Z,98430.40
2022-12-08T22:17:17.985Z,98432.80
2022-12-08T22:19:46.031Z,98430.80
2022-12-08T22:22:12.618Z,98433.40
2022-12-08T22:24:39.497Z,98435.20
2022-12-08T22:27:07.077Z,98435.40
2022-12-08T22:29:33.635Z,98431.40
2022-12-08T22:32:00.234Z,98435.00
2022-12-08T22:34:26.829Z,98431.60
2022-12-08T22:36:53.478Z,98440.00
2022-12-08T22:39:20.102Z,98434.20
2022-12-08T22:41:46.703Z,98442.60
2022-12-08T22:44:13.666Z,98439.20
2022-12-08T22:46:40.559Z,98442.60
2022-12-08T22:49:07.321Z,98443.00
2022-12-08T22:51:37.865Z,98447.80
2022-12-08T22:54:05.178Z,98450.40
2022-12-08T22:56:31.740Z,98450.40
2022-12-08T22:58:59.454Z,98455.20
2022-12-08T23:01:31.788Z,98453.40
2022-12-08T23:03:59.483Z,98452.80
2022-12-08T23:06:27.200Z,98455.80
2022-12-08T23:08:54.152Z,98452.20
2022-12-08T23:11:22.212Z,98454.00
2022-12-08T23:13:49.067Z,98452.40
2022-12-08T23:16:15.775Z,98445.80
2022-12-08T23:18:44.949Z,98447.80
2022-12-08T23:21:17.206Z,98446.00
2022-12-08T23:23:43.931Z,98443.00
2022-12-08T23:26:20.276Z,98438.40
2022-12-08T23:28:46.958Z,98435.00
2022-12-08T23:31:13.899Z,98432.20
2022-12-08T23:33:40.630Z,98426.40
2022-12-08T23:36:07.791Z,98425.20
2022-12-08T23:38:34.483Z,98417.60
2022-12-08T23:41:02.949Z,98419.80
2022-12-08T23:43:29.520Z,98419.60
2022-12-08T23:45:56.037Z,98421.20
2022-12-08T23:48:23.026Z,98423.80
2022-12-08T23:50:49.662Z,98421.80
2022-12-08T23:53:16.736Z,98418.00
2022-12-08T23:55:43.553Z,98423.20
2022-12-08T23:58:09.939Z,98422.60
